Time;durP1;ratioP1;P1;durP2;ratioP2;P2;SDS_P1;SDS_P2;PMS_P1;PMS_P2;Temp;Humidity;BMP_temperature;BMP_pressure;BME280_temperature;BME280_humidity;BME280_pressure;Samples;Min_cycle;Max_cycle;Signal;HPM_P1;HPM_P2
2021/07/12 00:02:14;;;;;;;20.60;18.60;;;;;;;;;;5038767;28;20533;-73
2021/07/12 00:04:40;;;;;;;20.95;19.15;;;;;;;;;;5032114;28;20053;-74
2021/07/12 00:07:06;;;;;;;20.35;18.52;;;;;;;;;;5025077;28;20482;-73
2021/07/12 00:09:32;;;;;;;21.33;19.42;;;;;;;;;;5031288;28;20037;-73
2021/07/12 00:11:58;;;;;;;19.73;18.13;;;;;;;;;;5019804;28;20343;-73
2021/07/12 00:14:29;;;;;;;20.10;18.30;;;;;;;;;;5039734;28;20044;-73
2021/07/12 00:16:55;;;;;;;17.73;16.25;;;;;;;;;;5032772;28;20044;-74
2021/07/12 00:19:22;;;;;;;21.42;19.38;;;;;;;;;;5036721;28;20452;-73
2021/07/12 00:21:48;;;;;;;22.67;20.42;;;;;;;;;;5029277;28;20460;-73
2021/07/12 00:24:14;;;;;;;26.25;23.15;;;;;;;;;;5046296;28;20492;-74
2021/07/12 00:26:40;;;;;;;26.55;23.88;;;;;;;;;;5026068;28;20048;-73
2021/07/12 00:29:06;;;;;;;29.63;26.52;;;;;;;;;;5038422;28;20497;-73
2021/07/12 00:31:32;;;;;;;26.75;24.08;;;;;;;;;;5030380;28;20481;-73
2021/07/12 00:33:59;;;;;;;32.53;27.80;;;;;;;;;;5037766;28;20037;-74
2021/07/12 00:36:25;;;;;;;36.15;30.33;;;;;;;;;;5014883;28;20072;-74
2021/07/12 00:38:51;;;;;;;30.90;27.75;;;;;;;;;;5020865;28;20048;-74
2021/07/12 00:41:17;;;;;;;40.22;32.20;;;;;;;;;;5035904;28;20048;-75
2021/07/12 00:43:45;;;;;;;35.75;31.77;;;;;;;;;;5036236;28;20041;-74
2021/07/12 00:46:11;;;;;;;31.88;28.77;;;;;;;;;;5029659;28;20041;-72
2021/07/12 00:48:37;;;;;;;32.95;29.65;;;;;;;;;;5034930;28;20041;-71
2021/07/12 00:51:04;;;;;;;35.08;31.45;;;;;;;;;;5034650;28;20036;-71
2021/07/12 00:53:30;;;;;;;33.33;29.80;;;;;;;;;;5028737;28;20112;-70
2021/07/12 00:55:56;;;;;;;34.42;30.83;;;;;;;;;;5033674;28;20041;-69
2021/07/12 00:58:24;;;;;;;34.33;30.63;;;;;;;;;;5034702;28;20034;-68
2021/07/12 01:00:56;;;;;;;35.08;31.42;;;;;;;;;;5039047;28;20036;-68
2021/07/12 01:03:22;;;;;;;36.50;32.75;;;;;;;;;;5031585;28;20128;-68
2021/07/12 01:05:49;;;;;;;66.13;39.40;;;;;;;;;;5033249;28;20056;-68
2021/07/12 01:08:15;;;;;;;38.53;34.65;;;;;;;;;;5032219;28;20607;-68
2021/07/12 01:10:43;;;;;;;36.63;33.05;;;;;;;;;;5030374;28;20039;-68
2021/07/12 01:13:24;;;;;;;37.67;33.78;;;;;;;;;;5030004;28;20033;-68
2021/07/12 01:16:04;;;;;;;58.25;40.03;;;;;;;;;;5040631;28;20089;-67
2021/07/12 01:18:32;;;;;;;37.15;33.35;;;;;;;;;;5029671;28;20064;-68
2021/07/12 01:21:37;;;;;;;38.40;34.22;;;;;;;;;;5032652;28;20041;-67
2021/07/12 01:24:06;;;;;;;37.17;33.38;;;;;;;;;;4982925;28;20128;-67
2021/07/12 01:27:06;;;;;;;36.25;32.50;;;;;;;;;;5035550;28;20037;-67
2021/07/12 01:29:47;;;;;;;40.15;34.30;;;;;;;;;;5025139;28;20037;-67
2021/07/12 01:32:32;;;;;;;38.80;34.60;;;;;;;;;;5032951;28;20345;-67
2021/07/12 01:35:17;;;;;;;60.53;38.22;;;;;;;;;;5032131;28;20068;-68
2021/07/12 01:37:55;;;;;;;77.63;42.78;;;;;;;;;;5036458;28;20059;-68
2021/07/12 01:40:36;;;;;;;59.22;40.05;;;;;;;;;;5026953;28;20042;-68
2021/07/12 01:43:02;;;;;;;39.85;35.65;;;;;;;;;;5039226;28;20473;-68
2021/07/12 01:45:33;;;;;;;37.78;33.42;;;;;;;;;;5029247;28;20132;-68
2021/07/12 01:48:02;;;;;;;51.50;38.20;;;;;;;;;;5041184;28;20045;-68
2021/07/12 01:50:31;;;;;;;70.95;42.47;;;;;;;;;;5031468;28;20037;-68
2021/07/12 01:52:57;;;;;;;109.13;47.63;;;;;;;;;;5037749;28;20108;-68
2021/07/12 01:55:32;;;;;;;62.90;40.88;;;;;;;;;;5026839;28;20049;-68
2021/07/12 01:58:08;;;;;;;38.10;32.35;;;;;;;;;;5035346;28;20492;-68
2021/07/12 02:00:35;;;;;;;45.78;38.67;;;;;;;;;;5030993;28;20034;-69
2021/07/12 02:03:02;;;;;;;70.43;43.47;;;;;;;;;;5017207;28;20161;-68
2021/07/12 02:05:30;;;;;;;39.55;35.30;;;;;;;;;;5034284;28;20409;-68
2021/07/12 02:07:57;;;;;;;49.20;37.78;;;;;;;;;;5040778;28;20076;-68
2021/07/12 02:10:26;;;;;;;54.70;39.92;;;;;;;;;;5012218;28;20068;-69
2021/07/12 02:12:53;;;;;;;41.08;36.45;;;;;;;;;;5034064;28;20083;-69
2021/07/12 02:15:20;;;;;;;40.65;35.67;;;;;;;;;;5027990;28;20145;-68
2021/07/12 02:17:47;;;;;;;98.35;44.63;;;;;;;;;;5035654;28;20064;-68
2021/07/12 02:20:15;;;;;;;107.90;46.03;;;;;;;;;;5010173;28;20049;-68
2021/07/12 02:22:41;;;;;;;98.95;44.38;;;;;;;;;;5035540;28;20044;-68
2021/07/12 02:25:10;;;;;;;38.50;34.38;;;;;;;;;;5028779;28;20474;-68
2021/07/12 02:27:36;;;;;;;39.15;34.78;;;;;;;;;;5033418;28;20083;-68
2021/07/12 02:30:03;;;;;;;55.70;39.60;;;;;;;;;;5035125;28;20343;-68
2021/07/12 02:32:29;;;;;;;41.20;35.53;;;;;;;;;;5030604;28;20037;-68
2021/07/12 02:34:56;;;;;;;72.57;39.53;;;;;;;;;;5040848;28;20056;-69
2021/07/12 02:37:24;;;;;;;113.05;48.03;;;;;;;;;;5031638;28;20068;-69
2021/07/12 02:39:52;;;;;;;67.55;42.20;;;;;;;;;;5033639;28;20494;-69
2021/07/12 02:42:18;;;;;;;57.92;40.03;;;;;;;;;;5025982;28;20140;-69
2021/07/12 02:44:47;;;;;;;57.13;41.88;;;;;;;;;;5041596;28;20091;-69
2021/07/12 02:47:13;;;;;;;67.00;42.20;;;;;;;;;;5032856;28;20033;-69
2021/07/12 02:49:40;;;;;;;105.07;47.42;;;;;;;;;;5043642;28;20072;-69
2021/07/12 02:52:08;;;;;;;108.90;49.38;;;;;;;;;;5033575;28;20033;-69
2021/07/12 02:54:43;;;;;;;108.65;47.30;;;;;;;;;;5042222;28;20400;-69
2021/07/12 02:57:10;;;;;;;92.43;48.55;;;;;;;;;;5028550;28;20099;-69
2021/07/12 02:59:36;;;;;;;60.13;41.63;;;;;;;;;;5039450;28;20155;-69
2021/07/12 03:02:02;;;;;;;45.63;38.33;;;;;;;;;;5032346;28;20036;-69
2021/07/12 03:04:28;;;;;;;55.42;41.20;;;;;;;;;;5040998;28;20064;-69
2021/07/12 03:06:56;;;;;;;40.90;36.63;;;;;;;;;;5029999;28;20048;-69
2021/07/12 03:09:28;;;;;;;41.05;36.65;;;;;;;;;;5027234;28;20049;-69
2021/07/12 03:12:00;;;;;;;41.05;36.35;;;;;;;;;;5031871;28;20029;-69
2021/07/12 03:14:30;;;;;;;60.83;42.33;;;;;;;;;;5037965;28;20036;-69
2021/07/12 03:16:57;;;;;;;39.80;35.05;;;;;;;;;;5014534;28;20045;-69
2021/07/12 03:19:28;;;;;;;41.10;36.63;;;;;;;;;;5041348;28;20465;-69
2021/07/12 03:21:55;;;;;;;40.55;36.25;;;;;;;;;;5047024;28;20133;-69
2021/07/12 03:24:22;;;;;;;39.17;34.25;;;;;;;;;;5030722;28;20034;-69
2021/07/12 03:26:52;;;;;;;39.80;35.50;;;;;;;;;;5039629;28;20079;-69
2021/07/12 03:29:19;;;;;;;39.85;34.20;;;;;;;;;;5019953;28;20232;-70
2021/07/12 03:31:45;;;;;;;37.92;33.75;;;;;;;;;;5037709;28;20041;-70
2021/07/12 03:34:12;;;;;;;38.95;34.78;;;;;;;;;;5034893;28;20042;-70
2021/07/12 03:36:39;;;;;;;91.88;46.10;;;;;;;;;;5044510;28;20043;-70
2021/07/12 03:39:05;;;;;;;54.70;40.85;;;;;;;;;;5033430;28;20048;-70
2021/07/12 03:41:32;;;;;;;43.00;38.25;;;;;;;;;;5037744;28;20124;-69
2021/07/12 03:43:59;;;;;;;56.55;40.40;;;;;;;;;;5028316;28;20045;-71
2021/07/12 03:46:25;;;;;;;55.08;41.15;;;;;;;;;;5042263;28;20040;-70
2021/07/12 03:48:51;;;;;;;137.02;51.55;;;;;;;;;;5032504;28;20064;-70
2021/07/12 03:51:21;;;;;;;157.60;54.97;;;;;;;;;;5017525;28;20493;-70
2021/07/12 03:53:47;;;;;;;45.15;38.30;;;;;;;;;;5031299;28;20400;-70
2021/07/12 03:56:14;;;;;;;141.70;53.45;;;;;;;;;;5035578;28;20042;-70
2021/07/12 03:58:40;;;;;;;45.80;38.85;;;;;;;;;;5030442;28;20144;-70
2021/07/12 04:01:06;;;;;;;51.13;40.53;;;;;;;;;;5036834;28;20092;-70
2021/07/12 04:03:32;;;;;;;43.67;38.60;;;;;;;;;;5037704;28;20076;-70
2021/07/12 04:05:59;;;;;;;91.22;47.45;;;;;;;;;;5033767;28;20080;-70
2021/07/12 04:08:26;;;;;;;118.68;48.38;;;;;;;;;;5032895;28;20318;-71
2021/07/12 04:10:52;;;;;;;94.20;41.13;;;;;;;;;;5036503;28;20574;-71
2021/07/12 04:13:18;;;;;;;104.53;43.97;;;;;;;;;;5034776;28;20397;-71
2021/07/12 04:15:44;;;;;;;100.45;47.00;;;;;;;;;;5034062;28;20037;-71
2021/07/12 04:18:11;;;;;;;122.13;50.92;;;;;;;;;;5033040;28;20112;-71
2021/07/12 04:20:41;;;;;;;47.67;40.78;;;;;;;;;;5031949;28;20421;-71
2021/07/12 04:23:08;;;;;;;68.88;43.83;;;;;;;;;;5035994;28;20056;-70
2021/07/12 04:25:35;;;;;;;81.20;47.28;;;;;;;;;;5033383;28;20036;-71
2021/07/12 04:28:01;;;;;;;42.05;36.40;;;;;;;;;;5036319;28;20045;-71
2021/07/12 04:30:27;;;;;;;40.58;33.72;;;;;;;;;;5030744;28;20095;-71
2021/07/12 04:32:54;;;;;;;36.95;33.22;;;;;;;;;;5037327;28;20033;-71
2021/07/12 04:35:20;;;;;;;38.85;34.17;;;;;;;;;;5025807;28;20124;-71
2021/07/12 04:37:46;;;;;;;41.30;36.90;;;;;;;;;;5043835;28;20045;-71
2021/07/12 04:40:13;;;;;;;124.47;50.15;;;;;;;;;;5032652;28;20498;-71
2021/07/12 04:42:40;;;;;;;162.18;55.00;;;;;;;;;;5037009;28;20033;-71
2021/07/12 04:45:06;;;;;;;250.85;64.38;;;;;;;;;;5021927;28;20138;-71
2021/07/12 04:47:33;;;;;;;129.98;50.53;;;;;;;;;;5030305;28;20041;-71
2021/07/12 04:49:59;;;;;;;163.10;46.03;;;;;;;;;;5019340;28;20079;-71
2021/07/12 04:52:25;;;;;;;50.50;40.35;;;;;;;;;;5032148;28;20098;-71
2021/07/12 04:54:51;;;;;;;150.13;58.75;;;;;;;;;;5041028;28;20389;-70
2021/07/12 04:57:17;;;;;;;182.70;55.03;;;;;;;;;;5016300;28;20057;-70
2021/07/12 04:59:44;;;;;;;313.55;69.63;;;;;;;;;;5035902;28;20453;-71
2021/07/12 05:02:13;;;;;;;175.30;62.42;;;;;;;;;;5025359;28;20059;-70
2021/07/12 05:04:41;;;;;;;160.15;49.03;;;;;;;;;;5037501;28;20501;-70
2021/07/12 05:07:07;;;;;;;209.15;56.58;;;;;;;;;;5030357;28;20485;-70
2021/07/12 05:09:33;;;;;;;202.85;57.00;;;;;;;;;;5027665;28;20613;-70
2021/07/12 05:12:00;;;;;;;225.98;60.53;;;;;;;;;;5013030;28;20045;-70
2021/07/12 05:14:26;;;;;;;249.82;51.40;;;;;;;;;;5034836;28;20486;-70
2021/07/12 05:16:53;;;;;;;257.55;62.55;;;;;;;;;;5031659;28;20053;-70
2021/07/12 05:19:20;;;;;;;235.88;56.05;;;;;;;;;;5037874;28;20486;-70
2021/07/12 05:21:46;;;;;;;59.95;36.85;;;;;;;;;;5030474;28;20048;-71
2021/07/12 05:24:13;;;;;;;98.68;35.50;;;;;;;;;;5038187;28;20037;-71
2021/07/12 05:26:39;;;;;;;195.57;48.72;;;;;;;;;;5033154;28;20037;-71
2021/07/12 05:29:05;;;;;;;197.13;53.65;;;;;;;;;;5033228;28;20041;-71
2021/07/12 05:31:31;;;;;;;60.55;34.72;;;;;;;;;;5034086;28;20029;-70
2021/07/12 05:33:57;;;;;;;203.88;52.33;;;;;;;;;;5015670;28;20136;-70
2021/07/12 05:36:24;;;;;;;175.20;54.20;;;;;;;;;;5041289;28;20239;-71
2021/07/12 05:38:50;;;;;;;110.45;42.15;;;;;;;;;;5030544;28;20037;-71
2021/07/12 05:41:16;;;;;;;57.30;35.95;;;;;;;;;;5034818;28;20037;-71
2021/07/12 05:43:42;;;;;;;82.60;35.83;;;;;;;;;;5027657;28;20044;-71
2021/07/12 05:46:09;;;;;;;49.20;37.33;;;;;;;;;;5037539;28;20091;-71
2021/07/12 05:48:35;;;;;;;39.03;33.85;;;;;;;;;;5027922;28;20150;-72
2021/07/12 05:51:01;;;;;;;33.20;29.27;;;;;;;;;;5014090;28;20050;-72
2021/07/12 05:53:27;;;;;;;33.40;30.13;;;;;;;;;;5031619;28;20671;-72
2021/07/12 05:55:53;;;;;;;36.15;32.17;;;;;;;;;;5034622;28;20040;-72
2021/07/12 05:58:20;;;;;;;46.70;34.03;;;;;;;;;;5024828;28;20464;-72
2021/07/12 06:00:46;;;;;;;37.72;31.85;;;;;;;;;;5032784;28;20040;-71
2021/07/12 06:03:12;;;;;;;46.38;35.13;;;;;;;;;;5033139;28;20116;-71
2021/07/12 06:05:38;;;;;;;44.00;37.22;;;;;;;;;;5031816;28;20037;-71
2021/07/12 06:08:05;;;;;;;56.70;39.45;;;;;;;;;;5018644;28;20595;-72
2021/07/12 06:10:31;;;;;;;42.08;35.08;;;;;;;;;;5030359;28;20091;-71
2021/07/12 06:12:57;;;;;;;39.25;35.10;;;;;;;;;;5035863;28;20091;-71
2021/07/12 06:15:23;;;;;;;37.60;33.70;;;;;;;;;;5012654;28;20049;-72
2021/07/12 06:17:51;;;;;;;34.85;31.65;;;;;;;;;;5016398;28;20085;-72
2021/07/12 06:20:18;;;;;;;31.27;28.48;;;;;;;;;;5020062;28;20131;-71
2021/07/12 06:22:48;;;;;;;32.15;29.13;;;;;;;;;;5040581;28;20044;-71
2021/07/12 06:25:15;;;;;;;36.38;32.47;;;;;;;;;;5043113;28;20473;-71
2021/07/12 06:27:41;;;;;;;33.13;30.05;;;;;;;;;;5042912;28;20258;-72
2021/07/12 06:30:08;;;;;;;33.33;30.23;;;;;;;;;;5014047;28;20119;-72
2021/07/12 06:32:34;;;;;;;34.13;30.88;;;;;;;;;;5020958;28;20120;-72
2021/07/12 06:35:02;;;;;;;33.10;29.88;;;;;;;;;;5034382;28;20032;-72
2021/07/12 06:37:28;;;;;;;34.08;30.98;;;;;;;;;;5040239;28;20037;-72
2021/07/12 06:39:54;;;;;;;30.55;27.95;;;;;;;;;;5018112;28;20029;-73
2021/07/12 06:42:21;;;;;;;33.63;30.63;;;;;;;;;;5023469;28;20053;-72
2021/07/12 06:44:47;;;;;;;30.98;28.10;;;;;;;;;;5041548;28;20120;-72
2021/07/12 06:47:14;;;;;;;33.20;30.08;;;;;;;;;;5037993;28;20378;-72
2021/07/12 06:49:41;;;;;;;31.23;28.42;;;;;;;;;;5040487;28;20029;-72
2021/07/12 06:52:07;;;;;;;31.75;28.85;;;;;;;;;;5039644;28;20121;-72
2021/07/12 06:54:33;;;;;;;31.35;28.63;;;;;;;;;;5041567;28;20444;-72
2021/07/12 06:56:59;;;;;;;30.58;27.98;;;;;;;;;;5032257;28;20041;-72
2021/07/12 06:59:25;;;;;;;29.10;26.58;;;;;;;;;;5039625;28;20061;-72
2021/07/12 07:01:52;;;;;;;30.63;27.73;;;;;;;;;;5032619;28;20432;-72
2021/07/12 07:04:18;;;;;;;27.10;24.73;;;;;;;;;;5039078;28;20137;-72
2021/07/12 07:06:44;;;;;;;25.48;23.42;;;;;;;;;;5033371;28;20536;-72
2021/07/12 07:09:10;;;;;;;29.45;26.95;;;;;;;;;;5039067;28;20455;-72
2021/07/12 07:11:36;;;;;;;28.85;26.45;;;;;;;;;;5029994;28;20454;-72
2021/07/12 07:14:05;;;;;;;26.27;24.17;;;;;;;;;;5039064;28;20297;-72
2021/07/12 07:16:31;;;;;;;27.83;25.58;;;;;;;;;;5019857;28;20046;-72
2021/07/12 07:18:57;;;;;;;27.67;25.38;;;;;;;;;;5036960;28;20037;-72
2021/07/12 07:21:23;;;;;;;25.13;23.13;;;;;;;;;;5033261;28;20041;-72
2021/07/12 07:23:49;;;;;;;25.90;23.73;;;;;;;;;;5037815;28;20080;-70
2021/07/12 07:26:16;;;;;;;27.17;24.90;;;;;;;;;;5027988;28;20130;-70
2021/07/12 07:28:42;;;;;;;27.65;25.35;;;;;;;;;;5033040;28;20041;-70
2021/07/12 07:31:08;;;;;;;27.38;24.85;;;;;;;;;;5043146;28;20123;-70
2021/07/12 07:33:35;;;;;;;24.17;22.17;;;;;;;;;;5031638;28;20041;-70
2021/07/12 07:36:02;;;;;;;25.92;23.90;;;;;;;;;;5028794;28;20474;-70
2021/07/12 07:38:28;;;;;;;26.77;24.55;;;;;;;;;;5029383;28;20036;-70
2021/07/12 07:40:54;;;;;;;26.05;23.77;;;;;;;;;;5037011;28;20394;-70
2021/07/12 07:43:21;;;;;;;23.88;21.98;;;;;;;;;;5026818;28;20029;-70
2021/07/12 07:45:47;;;;;;;23.42;21.38;;;;;;;;;;5024448;28;20049;-70
2021/07/12 07:48:13;;;;;;;22.38;20.55;;;;;;;;;;5034998;28;20486;-70
2021/07/12 07:50:42;;;;;;;23.60;21.73;;;;;;;;;;5037948;28;20045;-70
2021/07/12 07:53:09;;;;;;;20.88;19.23;;;;;;;;;;5029128;28;20405;-70
2021/07/12 07:55:35;;;;;;;22.83;20.92;;;;;;;;;;5039540;28;20033;-70
2021/07/12 07:58:02;;;;;;;23.48;21.45;;;;;;;;;;5029589;28;20041;-70
2021/07/12 08:00:29;;;;;;;22.33;20.52;;;;;;;;;;5037049;28;20111;-71
2021/07/12 08:02:55;;;;;;;22.60;20.75;;;;;;;;;;5036044;28;20426;-71
2021/07/12 08:05:22;;;;;;;21.85;20.15;;;;;;;;;;5040917;28;20254;-71
2021/07/12 08:07:48;;;;;;;22.77;20.98;;;;;;;;;;5039906;28;20490;-71
2021/07/12 08:10:15;;;;;;;23.35;21.45;;;;;;;;;;5030958;28;20034;-71
2021/07/12 08:12:42;;;;;;;24.38;22.23;;;;;;;;;;5032866;28;20048;-71
2021/07/12 08:15:09;;;;;;;26.60;24.38;;;;;;;;;;5032916;28;20272;-71
2021/07/12 08:17:37;;;;;;;24.52;22.52;;;;;;;;;;5036553;28;20037;-72
2021/07/12 08:20:04;;;;;;;24.17;22.20;;;;;;;;;;5028885;28;20500;-71
2021/07/12 08:22:30;;;;;;;25.95;23.67;;;;;;;;;;5034126;28;20046;-71
2021/07/12 08:24:56;;;;;;;25.73;23.63;;;;;;;;;;5034741;28;20067;-71
2021/07/12 08:27:22;;;;;;;26.40;24.20;;;;;;;;;;5021350;28;20082;-71
2021/07/12 08:29:48;;;;;;;25.30;23.10;;;;;;;;;;5017455;28;20053;-70
2021/07/12 08:32:14;;;;;;;22.98;21.08;;;;;;;;;;5033636;28;20105;-70
2021/07/12 08:34:42;;;;;;;23.90;21.92;;;;;;;;;;5013971;28;20033;-70
2021/07/12 08:37:09;;;;;;;24.95;22.65;;;;;;;;;;5035715;28;20428;-72
2021/07/12 08:39:35;;;;;;;23.33;21.42;;;;;;;;;;5032873;28;20078;-73
2021/07/12 08:42:02;;;;;;;22.20;20.48;;;;;;;;;;5039672;28;20086;-72
2021/07/12 08:44:29;;;;;;;21.60;19.80;;;;;;;;;;5037586;28;20033;-72
2021/07/12 08:46:55;;;;;;;17.60;16.13;;;;;;;;;;5018789;28;20065;-72
2021/07/12 08:49:21;;;;;;;19.67;17.98;;;;;;;;;;5037999;28;20044;-72
2021/07/12 08:51:49;;;;;;;21.38;19.67;;;;;;;;;;5033371;28;20042;-73
2021/07/12 08:54:16;;;;;;;18.73;17.25;;;;;;;;;;5022809;28;20048;-73
2021/07/12 08:56:43;;;;;;;17.80;16.50;;;;;;;;;;5012180;28;20053;-69
2021/07/12 08:59:28;;;;;;;17.35;15.95;;;;;;;;;;5034974;28;20395;-69
2021/07/12 09:02:03;;;;;;;15.40;14.05;;;;;;;;;;5027832;28;20061;-69
2021/07/12 09:04:29;;;;;;;14.00;12.90;;;;;;;;;;5038154;28;20053;-69
2021/07/12 09:06:59;;;;;;;10.85;10.05;;;;;;;;;;5028247;28;20051;-69
2021/07/12 09:09:25;;;;;;;13.40;12.40;;;;;;;;;;5038157;28;20045;-69
2021/07/12 09:11:51;;;;;;;12.80;11.90;;;;;;;;;;5029697;28;20111;-68
2021/07/12 09:14:18;;;;;;;12.77;11.82;;;;;;;;;;5039899;28;20041;-68
2021/07/12 09:16:51;;;;;;;10.80;10.00;;;;;;;;;;5032788;28;20060;-68
2021/07/12 09:19:19;;;;;;;9.65;8.95;;;;;;;;;;5035056;28;20175;-70
2021/07/12 09:21:48;;;;;;;9.45;8.55;;;;;;;;;;5037893;28;20455;-71
2021/07/12 09:24:22;;;;;;;10.43;9.55;;;;;;;;;;5039122;28;20168;-71
2021/07/12 09:26:59;;;;;;;8.73;8.00;;;;;;;;;;5026590;28;20414;-71
2021/07/12 09:29:29;;;;;;;8.15;7.40;;;;;;;;;;5032914;28;20112;-71
2021/07/12 09:31:56;;;;;;;8.18;7.47;;;;;;;;;;5032650;28;20037;-71
2021/07/12 09:34:23;;;;;;;8.52;7.82;;;;;;;;;;5033982;28;20060;-71
2021/07/12 09:36:50;;;;;;;7.15;6.55;;;;;;;;;;5010775;28;20049;-72
2021/07/12 09:39:17;;;;;;;8.25;7.47;;;;;;;;;;5030699;28;20041;-70
2021/07/12 09:41:46;;;;;;;7.95;7.30;;;;;;;;;;5038328;28;20409;-70
2021/07/12 09:44:12;;;;;;;6.95;6.35;;;;;;;;;;5032514;28;20404;-71
2021/07/12 09:46:39;;;;;;;6.60;6.10;;;;;;;;;;5037684;28;20078;-71
2021/07/12 09:49:09;;;;;;;6.72;6.13;;;;;;;;;;5039994;28;20046;-70
2021/07/12 09:51:35;;;;;;;7.38;5.57;;;;;;;;;;5040914;28;20065;-70
2021/07/12 09:54:21;;;;;;;5.78;5.28;;;;;;;;;;5034327;28;20037;-71
2021/07/12 09:56:48;;;;;;;4.50;4.20;;;;;;;;;;5039789;28;20056;-74
2021/07/12 09:59:15;;;;;;;5.22;4.82;;;;;;;;;;5031404;28;20044;-74
2021/07/12 10:01:48;;;;;;;5.03;4.60;;;;;;;;;;5023050;28;20099;-74
2021/07/12 10:04:15;;;;;;;4.03;3.72;;;;;;;;;;5030555;28;20120;-74
2021/07/12 10:06:43;;;;;;;4.57;4.22;;;;;;;;;;5036470;28;20937;-74
2021/07/12 10:09:09;;;;;;;2.78;2.58;;;;;;;;;;5034775;28;20079;-73
2021/07/12 10:11:35;;;;;;;4.00;3.60;;;;;;;;;;5019889;28;20029;-73
2021/07/12 10:14:03;;;;;;;3.22;2.92;;;;;;;;;;5017074;28;20124;-74
2021/07/12 10:16:30;;;;;;;4.65;3.35;;;;;;;;;;5029235;28;20049;-74
2021/07/12 10:18:56;;;;;;;3.35;3.05;;;;;;;;;;5035425;28;20144;-74
2021/07/12 10:21:23;;;;;;;3.53;3.13;;;;;;;;;;5038171;28;20088;-74
2021/07/12 10:23:56;;;;;;;5.22;4.03;;;;;;;;;;5033530;28;20041;-74
2021/07/12 10:26:40;;;;;;;3.95;3.55;;;;;;;;;;5037481;28;20047;-74
2021/07/12 10:29:13;;;;;;;4.35;2.83;;;;;;;;;;5033976;28;20036;-74
2021/07/12 10:31:55;;;;;;;6.07;4.20;;;;;;;;;;5038429;28;20040;-74
2021/07/12 10:34:40;;;;;;;4.63;4.22;;;;;;;;;;5042499;28;20524;-75
2021/07/12 10:37:17;;;;;;;5.15;4.75;;;;;;;;;;5037178;28;20033;-74
2021/07/12 10:40:05;;;;;;;5.53;5.05;;;;;;;;;;5033802;28;20128;-74
2021/07/12 10:42:44;;;;;;;5.43;4.93;;;;;;;;;;5035565;28;20116;-74
2021/07/12 10:45:16;;;;;;;5.32;4.93;;;;;;;;;;5031404;28;20045;-74
2021/07/12 10:47:47;;;;;;;4.90;4.50;;;;;;;;;;5033872;28;20083;-74
2021/07/12 10:50:32;;;;;;;6.22;5.63;;;;;;;;;;5036487;28;20029;-74
2021/07/12 10:52:58;;;;;;;6.32;5.80;;;;;;;;;;5043912;28;20043;-74
2021/07/12 10:55:29;;;;;;;5.72;5.22;;;;;;;;;;5013900;28;20099;-74
2021/07/12 10:58:15;;;;;;;5.32;4.93;;;;;;;;;;5035585;28;20041;-74
2021/07/12 11:00:41;;;;;;;5.47;4.97;;;;;;;;;;5035484;28;20463;-73
2021/07/12 11:03:27;;;;;;;6.70;6.00;;;;;;;;;;5040497;28;20029;-72
2021/07/12 11:05:53;;;;;;;6.30;5.70;;;;;;;;;;5033800;28;20044;-72
2021/07/12 11:08:37;;;;;;;5.70;5.20;;;;;;;;;;5037112;28;20041;-73
2021/07/12 11:11:04;;;;;;;5.25;4.75;;;;;;;;;;5014936;28;20037;-73
2021/07/12 11:13:50;;;;;;;5.47;4.97;;;;;;;;;;5038009;28;20037;-73
2021/07/12 11:16:26;;;;;;;6.20;5.70;;;;;;;;;;5019275;28;20452;-74
2021/07/12 11:18:53;;;;;;;6.18;5.68;;;;;;;;;;5017959;28;20041;-73
2021/07/12 11:21:30;;;;;;;6.00;5.40;;;;;;;;;;5038070;28;20064;-73
2021/07/12 11:23:57;;;;;;;6.75;5.03;;;;;;;;;;5036338;28;20060;-73
2021/07/12 11:26:23;;;;;;;6.53;5.93;;;;;;;;;;5015099;28;20038;-73
2021/07/12 11:28:59;;;;;;;7.32;6.60;;;;;;;;;;5038436;28;20032;-73
2021/07/12 11:31:45;;;;;;;6.35;5.70;;;;;;;;;;5030000;28;20453;-73
2021/07/12 11:34:14;;;;;;;6.75;6.07;;;;;;;;;;5036327;28;20543;-74
2021/07/12 11:36:46;;;;;;;6.00;5.50;;;;;;;;;;5018795;28;20033;-74
2021/07/12 11:39:14;;;;;;;7.00;6.50;;;;;;;;;;5033934;28;20048;-73
2021/07/12 11:41:41;;;;;;;6.60;6.10;;;;;;;;;;5029263;28;20037;-73
2021/07/12 11:44:08;;;;;;;7.15;6.55;;;;;;;;;;5036065;28;20125;-73
2021/07/12 11:46:35;;;;;;;7.47;6.72;;;;;;;;;;5021052;28;20043;-73
2021/07/12 11:49:06;;;;;;;6.63;6.13;;;;;;;;;;5035110;28;20043;-73
2021/07/12 11:51:32;;;;;;;6.93;6.22;;;;;;;;;;5033079;28;20123;-73
2021/07/12 11:53:59;;;;;;;7.47;6.88;;;;;;;;;;5031329;28;20443;-73
2021/07/12 11:56:25;;;;;;;8.13;7.43;;;;;;;;;;5019992;28;20049;-73
2021/07/12 11:58:58;;;;;;;7.60;7.00;;;;;;;;;;5035738;28;20071;-73
2021/07/12 12:01:24;;;;;;;8.88;7.97;;;;;;;;;;5035716;28;20045;-72
2021/07/12 12:04:01;;;;;;;8.67;7.83;;;;;;;;;;4997569;28;1093796;-72
2021/07/12 12:06:27;;;;;;;8.23;7.53;;;;;;;;;;5037027;28;20041;-72
2021/07/12 12:08:56;;;;;;;7.82;7.22;;;;;;;;;;5030963;28;20175;-72
2021/07/12 12:11:29;;;;;;;9.77;8.98;;;;;;;;;;5036967;28;20090;-72
2021/07/12 12:13:56;;;;;;;9.93;9.03;;;;;;;;;;5036825;28;20037;-72
2021/07/12 12:16:29;;;;;;;9.68;8.88;;;;;;;;;;5034639;28;20041;-72
2021/07/12 12:18:55;;;;;;;9.68;8.77;;;;;;;;;;5028932;28;20041;-72
2021/07/12 12:21:22;;;;;;;9.68;8.88;;;;;;;;;;5035083;28;20068;-72
2021/07/12 12:23:48;;;;;;;9.05;8.27;;;;;;;;;;5016830;28;20064;-72
2021/07/12 12:26:22;;;;;;;8.48;7.72;;;;;;;;;;5040145;28;20249;-72
2021/07/12 12:28:53;;;;;;;8.18;7.47;;;;;;;;;;5030004;28;20045;-72
2021/07/12 12:31:24;;;;;;;7.70;7.03;;;;;;;;;;5038355;28;20040;-72
2021/07/12 12:34:19;;;;;;;7.85;7.22;;;;;;;;;;5033221;28;20033;-72
2021/07/12 12:36:45;;;;;;;8.88;8.07;;;;;;;;;;5021514;28;20107;-72
2021/07/12 12:39:13;;;;;;;9.13;8.43;;;;;;;;;;5038050;28;20029;-72
2021/07/12 12:41:45;;;;;;;8.65;7.90;;;;;;;;;;5035072;28;20116;-72
2021/07/12 12:44:13;;;;;;;9.55;8.75;;;;;;;;;;5030950;28;20386;-72
2021/07/12 12:46:46;;;;;;;8.57;7.75;;;;;;;;;;5040376;28;20131;-72
2021/07/12 12:49:19;;;;;;;8.60;7.90;;;;;;;;;;5016352;28;20079;-72
2021/07/12 12:51:54;;;;;;;9.45;8.30;;;;;;;;;;5041101;28;20080;-72
2021/07/12 12:54:22;;;;;;;9.32;8.60;;;;;;;;;;5022350;28;20040;-73
2021/07/12 12:56:52;;;;;;;8.55;7.88;;;;;;;;;;5022348;28;20057;-73
2021/07/12 12:59:28;;;;;;;8.45;7.65;;;;;;;;;;5033445;28;20037;-73
2021/07/12 13:02:00;;;;;;;9.70;8.80;;;;;;;;;;5040226;28;20044;-73
2021/07/12 13:04:26;;;;;;;9.18;8.40;;;;;;;;;;5016612;28;20433;-71
2021/07/12 13:06:55;;;;;;;9.63;8.93;;;;;;;;;;5032451;28;20049;-73
2021/07/12 13:09:25;;;;;;;10.70;9.80;;;;;;;;;;5034391;28;20436;-72
2021/07/12 13:12:04;;;;;;;10.00;9.20;;;;;;;;;;5027022;28;20037;-72
2021/07/12 13:14:30;;;;;;;9.50;8.60;;;;;;;;;;5036503;28;20133;-73
2021/07/12 13:17:07;;;;;;;10.82;10.02;;;;;;;;;;5034095;28;20512;-72
2021/07/12 13:19:33;;;;;;;10.55;9.65;;;;;;;;;;5034018;28;20397;-72
2021/07/12 13:21:59;;;;;;;10.63;9.70;;;;;;;;;;5033854;28;20052;-72
2021/07/12 13:24:53;;;;;;;11.38;10.43;;;;;;;;;;5037521;28;20044;-72
2021/07/12 13:27:25;;;;;;;9.88;9.07;;;;;;;;;;5029363;28;20056;-72
2021/07/12 13:29:52;;;;;;;10.07;9.18;;;;;;;;;;5041533;28;20040;-72
2021/07/12 13:32:18;;;;;;;11.32;10.43;;;;;;;;;;5021411;28;20421;-72
2021/07/12 13:35:01;;;;;;;12.32;11.25;;;;;;;;;;5034999;28;20033;-72
2021/07/12 13:37:27;;;;;;;11.60;10.60;;;;;;;;;;5031378;28;20037;-72
2021/07/12 13:39:54;;;;;;;13.27;12.07;;;;;;;;;;5036317;28;20033;-72
2021/07/12 13:42:20;;;;;;;12.88;11.77;;;;;;;;;;5027952;28;20029;-72
2021/07/12 13:44:47;;;;;;;13.25;11.95;;;;;;;;;;5020632;28;20037;-72
2021/07/12 13:47:13;;;;;;;15.07;13.77;;;;;;;;;;5014360;28;20033;-72
2021/07/12 13:49:40;;;;;;;14.00;12.60;;;;;;;;;;5035617;28;20033;-72
2021/07/12 13:52:07;;;;;;;11.88;10.85;;;;;;;;;;5031197;28;20385;-72
2021/07/12 13:54:33;;;;;;;13.80;12.52;;;;;;;;;;5039248;28;20083;-72
2021/07/12 13:57:00;;;;;;;13.00;11.80;;;;;;;;;;5034284;28;22798;-72
2021/07/12 13:59:29;;;;;;;13.75;12.63;;;;;;;;;;5035894;28;20041;-72
2021/07/12 14:01:56;;;;;;;12.52;11.43;;;;;;;;;;5030983;28;20072;-73
2021/07/12 14:04:22;;;;;;;12.27;11.27;;;;;;;;;;5020011;28;20041;-72
2021/07/12 14:06:48;;;;;;;13.13;11.70;;;;;;;;;;5024520;28;20049;-72
2021/07/12 14:09:15;;;;;;;12.45;11.45;;;;;;;;;;5033810;28;20044;-73
2021/07/12 14:11:41;;;;;;;11.10;10.15;;;;;;;;;;5032751;28;20055;-72
2021/07/12 14:14:07;;;;;;;12.27;11.18;;;;;;;;;;5030705;28;20095;-72
2021/07/12 14:16:33;;;;;;;12.65;11.55;;;;;;;;;;5042891;28;20105;-72
2021/07/12 14:18:59;;;;;;;12.88;11.77;;;;;;;;;;5033588;28;20044;-72
2021/07/12 14:21:26;;;;;;;11.50;10.50;;;;;;;;;;5026181;28;20514;-72
2021/07/12 14:23:52;;;;;;;12.32;11.18;;;;;;;;;;5030042;28;20132;-72
2021/07/12 14:26:21;;;;;;;11.60;10.63;;;;;;;;;;5019096;28;20120;-72
2021/07/12 14:28:48;;;;;;;12.13;11.13;;;;;;;;;;5034040;28;20048;-72
2021/07/12 14:31:18;;;;;;;13.50;12.30;;;;;;;;;;5035882;28;20413;-72
2021/07/12 14:33:45;;;;;;;13.38;12.18;;;;;;;;;;5031075;28;20414;-71